Timeline UpdatesTrip UpdatesNews PostsPvt PostsTravel TipsAdmin PostsConv PostsFollowed PostsChat RequestsBlog PostsPNR Posts

Disclaimer
Search
 
 
Tue Sep 2, 2014 05:08:47 ISTHomeTrainsΣChainsAtlasPNRForumGalleryNewsFAQTripsMembersLoginFeedback
No Recent News for this Train
Other Trains in the News **new
Latest...
⇐ Return Journey: Train# 54378

54377/Prayag-Bareilly Passenger (UnReserved)

OLD Time-Table. New TT will soon be available.
Jan 07 2014 (7:32PM)
Change Departure Station:
Change Arrival Station:
Post a Train Travel TipPost a Train Travel Tip **new
Post a Comment/Question/Picture/VideoPost a Comment/Question/Picture/Video
Pantry/Catering
???
RSA - Rake Sharing
Rake/Coach Composition
Loco
News    PNR    Forum    Time-Table    Availability    Fare Chart    Map    Arr/Dep History    Trips    Gallery    ΣChains    X/O    Timeline    
Travel Time: 1h 13m    3 halts    Distance: 28 km    Avg Speed: 23 km/hr
Type: Passenger
Zone: NR/Northern
Departs @ 13:57
Platform# ???
SMTWTFS
Tisua/TSA 
Arrives @ 15:10
Platform# 3
SMTWTFS
Bareilly Junction/BE 

3 halts. 3 intermediate Stations between Tisua and Bareilly Junction

Show ALL intermediate Stations  

#CodeStation NameX/OArrivesAvgDepartsAvgHaltPFDay#KmSpeedElevZoneAddress
1PRGPrayag Junction (3)  -01:55---1-400.53296mNRAllahabad, Uttar Pradesh
2PFMPhaphamau Junction (3)  02:07-02:08-1m--1-394.14499mNRAllahabad, Uttar Pradesh
3SPGLSarai Gopal  02:15-02:16-1m--1-389.059101mNRAllahabad Bypass, Uttar Pradesh
4ARPAtrampur  02:25-02:26-1m--1-380.253105mNRAtrampur Railway Station, Uttar Pradesh
5RMCRam Chaura Road  02:34-02:35-1m--1-373.152103mNRAnapur - Mansurabad Road, Uttar Pradesh
6LGOLalgopalGanj  02:43-02:44-1m--1-366.255104mNRLal Gopalganj, Uttar Pradesh
7BHDRBhadri  02:52-02:53-1m--1-358.948106mNRNational Highway 24B, Uttar Pradesh
8KHNMKunda Harnamganj (2)  03:02-03:03-1m--1-351.759110mNRKunda, Uttar Pradesh
9GRMRGarhi Manikpur  03:15-03:16-1m--1-339.948113mNRGarhi Manikpur, Uttar Pradesh
10PQNPariawan Kalakankar Road  03:25-03:26-1m--1-332.857115mNRPwn Klaknder Rd, Uttar Pradesh
11ARKAArkha  03:35-03:36-1m--1-324.117115mNRLucknow Allahabad Rd, Uttar Pradesh
12UCRUnchahar JunctionX  03:44-03:45-1m--1-321.861116mNRUnchahar, Uttar Pradesh
13RCPRamachandrapur  03:56-03:57-1m--1-310.645114mNRLucknow Allahabad Rd, Uttar Pradesh
14LMNLachhmanpur  04:05-04:06-1m--1-304.768119mNRUnchahar, Uttar Pradesh
15DYPDaryapur Junction  04:19-04:20-1m--1-289.924115mNRNational Highway 24B, Uttar Pradesh
16RBLRae Bareli Junction (4)  04:35-04:40-5m--1-284.042116mNRRaebareli, Uttar Pradesh
17GANGGangaGanj (2)  04:51-04:52-1m--1-276.370118mNRBachhrawan, Uttar Pradesh
18HCPHarchandpur (3)  04:58-04:59-1m--1-269.347118mNRRae Bareli, Uttar Pradesh
19KVGKundanganj (2)  05:07-05:08-1m--1-262.952119mNRHarchandpur, Uttar Pradesh
20BCNBachhrawan (2)X  05:19-05:20-1m--1-253.414124mNRLucknow, Uttar Pradesh
21SAGRShrirajnagar (1)X  05:44-05:45-1m11-247.719122mNRMohanlalGanj, Uttar Pradesh
22NHNNigohan (1)X  06:04-06:05-1m11-241.718120mNRLucknow, Uttar Pradesh
23KKAHKankaha (1)  06:28-06:29-1m11-234.837125mNRBachhrawan, Uttar Pradesh
24MLJMohanlalGanj (1)  06:42-06:43-1m11-226.830124mNRMohanlalganj, Uttar Pradesh
25UTRUtraitia Junction (2)  07:00-07:01-1m--1-218.317124mNRLucknow, Uttar Pradesh
26LKOLucknow Charbagh (9)X  07:45-08:20-35m51-206.125123mNR226004, Uttar Pradesh
27AMGAlamnagar (3)X  08:37-08:38-1m--1-199.150126mNRLucknow, Uttar Pradesh
28KKJKakori (3)X  08:47-08:48-1m--1-191.658129mNRSH 25, Uttar Pradesh
29MLDMalihabad  08:58-08:59-1m--1-181.943130mNRMalihabad, Uttar Pradesh
30DILDilawarnagarX  09:07-09:08-1m--1-176.251133mNRSH 25, Uttar Pradesh
31RBDRahimabadX  09:17-09:18-1m--1-168.660132mNRSH 25, Uttar Pradesh
32SANSandila (3)X  09:29-09:30-1m--1-157.653132mNRSandila, Uttar Pradesh
33UTAUmar TaliO  09:36-09:37-1m--1-152.343135mNRHardoi, Uttar Pradesh
34DLQDalelnagar  09:46-09:47-1m--1-145.986136mNRSH 25, Uttar Pradesh
35BLMBalamu Junction (4)X  09:53-09:58-5m--1-137.340139mNRBalamau, Uttar Pradesh
36BGHBaghauli  10:11-10:12-1m--1-128.646141mNRsharda nehar, Uttar Pradesh
37MSTMasitX  10:21-10:22-1m--1-121.650141mNRSH 25, Uttar Pradesh
38KARKarnaX  10:31-10:32-1m--1-114.154143mNRHardoi, Uttar Pradesh
39HRIHardoi (5)X  10:43-10:44-1m--1-104.339146mNRHardoi, Uttar Pradesh
40KUFKaurhaX  10:57-10:58-1m--1-95.953148mNRSH 25, Uttar Pradesh
41BEGBehtagokul  11:08-11:09-1m--1-87.048152mNRBehtagokul, Uttar Pradesh
42TDPTodarpur  11:17-11:18-1m--1-80.526147mNRSH 25, Uttar Pradesh
43SHRMSharma  11:24-11:25-1m--1-78.051150mNRSH 25, Uttar Pradesh
44AJIAnjhi Shahabad  11:32-11:33-1m--1-72.147148mNRAnjhi Shahabad, Uttar Pradesh
45AIGAlgawan  11:41-11:42-1m--1-65.857152mNRAlgawan, Uttar Pradesh
46KHKahiliyaX  11:51-11:52-1m--1-57.312152mNRSH 25, Uttar Pradesh
47ROZARoza Junction (4)X  12:36-12:37-1m--1-48.742156mNRShahjahanpur, Uttar Pradesh
48SXKShahjahanpur CourtX  12:45-12:46-1m--1-43.17160mNRShahjahanpur, Uttar Pradesh
49SPNShahjahanpur Junction (3)X  12:55-13:00-5m--1-42.156156mNRShahjahanpur, Uttar Pradesh
50BTRABanthra  13:09-13:10-1m--1-33.748154mNRNH 24, Uttar Pradesh
51BHDHBahadurpur HaltX  13:17-13:18-1m--1-28.135154mNRNH 24, Uttar Pradesh
52TLHTilhar  13:25-13:26-1m--1-24.058163mNRTilhar, Uttar Pradesh
53MKMiranpur Katra  13:36-13:37-1m--1-14.248162mNRShahjahanpur, Uttar Pradesh
54BLPUBilpur  13:46-13:47-1m--1-7.047161mNRFatehganj, Uttar Pradesh
55TSA»Tisua»X  13:56-13:57-1m--10.051165mNRNational Highway 24, Uttar Pradesh
56PMRPitambarpur  14:07-14:08-1m--18.557171mNRPitambarpur, Uttar Pradesh
57RYSRasuriya  14:18-14:19-1m--118.044174mNRNH 24, Uttar Pradesh
58CHTIChanehti Junction  14:28-14:29-1m--124.66168mNRBareilly, Uttar Pradesh
59BE•Bareilly Junction (4)•  15:10--3128.4-174mNRBareilly, Uttar Pradesh
Scroll to Top
Scroll to Bottom